Time;durP1;ratioP1;P1;durP2;ratioP2;P2;SDS_P1;SDS_P2;PMS_P1;PMS_P2;Temp;Humidity;BMP_temperature;BMP_pressure;BME280_temperature;BME280_humidity;BME280_pressure;Samples;Min_cycle;Max_cycle;Signal;HPM_P1;HPM_P2
2024/01/05 00:01:29;;;;;;;;;;;;;;;11.98;53.01;96046.25;4186129;28;5851;-69
2024/01/05 00:03:32;;;;;;;;;;;;;;;11.96;52.58;96037.72;4186277;28;5838;-66
2024/01/05 00:05:35;;;;;;;;;;;;;;;11.97;52.45;96035.88;4185816;28;5718;-66
2024/01/05 00:07:40;;;;;;;;;;;;;;;12.00;52.63;96028.28;4186080;28;5748;-66
2024/01/05 00:09:43;;;;;;;;;;;;;;;12.00;52.59;96020.34;4185517;28;5876;-70
2024/01/05 00:11:47;;;;;;;;;;;;;;;12.00;52.67;96012.38;4185990;28;5714;-69
2024/01/05 00:13:50;;;;;;;;;;;;;;;12.00;52.29;96014.22;4185968;28;5910;-72
2024/01/05 00:15:53;;;;;;;;;;;;;;;11.99;52.46;96008.13;4183698;28;5880;-71
2024/01/05 00:17:57;;;;;;;;;;;;;;;12.00;52.32;95985.91;4183968;28;6001;-67
2024/01/05 00:20:00;;;;;;;;;;;;;;;12.02;52.34;95983.88;4185752;28;5760;-68
2024/01/05 00:22:03;;;;;;;;;;;;;;;12.01;52.35;95976.94;4185688;28;5718;-68
2024/01/05 00:24:07;;;;;;;;;;;;;;;12.00;52.08;95975.31;4185816;28;5802;-67
2024/01/05 00:26:10;;;;;;;;;;;;;;;12.02;52.00;95977.75;4177893;28;5821;-67
2024/01/05 00:28:13;;;;;;;;;;;;;;;12.01;51.84;95965.53;4185617;28;5872;-67
2024/01/05 00:30:16;;;;;;;;;;;;;;;12.00;52.07;95963.91;4185146;28;5812;-66
2024/01/05 00:32:19;;;;;;;;;;;;;;;12.02;51.81;95965.31;4185608;28;5699;-66
2024/01/05 00:34:22;;;;;;;;;;;;;;;12.03;52.00;95963.47;4185316;28;5752;-66
2024/01/05 00:36:25;;;;;;;;;;;;;;;12.04;51.77;95965.09;4185299;28;5756;-66
2024/01/05 00:38:27;;;;;;;;;;;;;;;12.05;51.63;95970.16;4185471;28;5566;-66
2024/01/05 00:40:32;;;;;;;;;;;;;;;12.05;51.76;95972.00;4185520;28;5558;-67
2024/01/05 00:42:35;;;;;;;;;;;;;;;12.04;51.73;95965.91;4185569;28;5759;-66
2024/01/05 00:44:37;;;;;;;;;;;;;;;12.05;51.72;95956.94;4185376;28;6223;-67
2024/01/05 00:46:40;;;;;;;;;;;;;;;12.05;52.12;95941.03;4185443;28;5890;-66
2024/01/05 00:48:43;;;;;;;;;;;;;;;12.05;51.67;95945.53;4185423;28;6391;-66
2024/01/05 00:50:46;;;;;;;;;;;;;;;12.05;51.39;95946.31;4180014;28;5672;-65
2024/01/05 00:52:49;;;;;;;;;;;;;;;12.01;51.51;95954.94;4183023;28;5751;-66
2024/01/05 00:54:52;;;;;;;;;;;;;;;12.02;51.74;95961.88;4185278;28;5714;-66
2024/01/05 00:56:57;;;;;;;;;;;;;;;12.04;51.99;95957.97;4185221;28;5763;-69
2024/01/05 00:59:00;;;;;;;;;;;;;;;12.04;51.59;95950.00;4185295;28;5702;-70
2024/01/05 01:01:03;;;;;;;;;;;;;;;12.06;51.67;95945.28;4185322;28;5736;-68
2024/01/05 01:03:06;;;;;;;;;;;;;;;12.06;51.62;95947.94;4185235;28;6180;-67
2024/01/05 01:05:10;;;;;;;;;;;;;;;12.07;51.62;95949.56;4168054;28;5650;-67
2024/01/05 01:07:13;;;;;;;;;;;;;;;12.07;51.65;95944.25;4184743;28;5755;-68
2024/01/05 01:09:16;;;;;;;;;;;;;;;12.06;51.56;95947.94;4184937;28;5730;-72
2024/01/05 01:11:20;;;;;;;;;;;;;;;12.09;51.82;95944.84;4185174;28;5815;-65
2024/01/05 01:13:28;;;;;;;;;;;;;;;12.11;51.34;95944.59;4185299;28;5771;-67
2024/01/05 01:15:30;;;;;;;;;;;;;;;12.11;51.64;95942.78;4185225;28;5771;-68
2024/01/05 01:17:33;;;;;;;;;;;;;;;12.10;51.61;95941.16;4184881;28;5702;-66
2024/01/05 01:19:36;;;;;;;;;;;;;;;12.09;51.51;95936.88;4184716;28;5760;-66
2024/01/05 01:21:39;;;;;;;;;;;;;;;12.07;51.59;95938.97;4184592;28;5744;-67
2024/01/05 01:23:42;;;;;;;;;;;;;;;12.06;51.27;95942.66;4184793;28;5847;-67
2024/01/05 01:25:44;;;;;;;;;;;;;;;12.03;51.74;95935.16;4185034;28;5098;-69
2024/01/05 01:27:47;;;;;;;;;;;;;;;11.98;51.71;95961.47;4184875;28;5838;-67
2024/01/05 01:29:51;;;;;;;;;;;;;;;11.99;52.09;95951.69;4184880;28;5835;-67
2024/01/05 01:31:53;;;;;;;;;;;;;;;12.00;52.07;95955.97;4184791;28;5751;-66
2024/01/05 01:33:57;;;;;;;;;;;;;;;12.01;51.81;95950.47;4184908;28;5726;-67
2024/01/05 01:35:59;;;;;;;;;;;;;;;12.03;51.90;95958.19;4184691;28;5764;-66
2024/01/05 01:38:02;;;;;;;;;;;;;;;12.03;52.01;95951.03;4184616;28;5707;-65
2024/01/05 01:40:06;;;;;;;;;;;;;;;12.02;52.34;95941.47;4184385;28;5714;-69
2024/01/05 01:42:09;;;;;;;;;;;;;;;12.02;52.34;95936.19;4176133;28;5710;-66
2024/01/05 01:44:12;;;;;;;;;;;;;;;12.03;52.38;95937.78;4184626;28;5703;-69
2024/01/05 01:46:17;;;;;;;;;;;;;;;12.04;52.51;95939.41;4184926;28;5752;-65
2024/01/05 01:48:19;;;;;;;;;;;;;;;12.05;52.06;95930.44;4184814;28;5695;-67
2024/01/05 01:50:24;;;;;;;;;;;;;;;12.05;52.19;95913.72;4184685;28;5740;-66
2024/01/05 01:52:28;;;;;;;;;;;;;;;12.05;52.59;95919.84;4184527;28;5949;-67
2024/01/05 01:54:32;;;;;;;;;;;;;;;12.05;52.35;95919.03;4184540;28;5727;-66
2024/01/05 01:56:38;;;;;;;;;;;;;;;12.02;52.30;95911.53;4175092;28;5633;-67
2024/01/05 01:58:44;;;;;;;;;;;;;;;12.00;52.23;95917.03;4184636;28;5756;-66
2024/01/05 02:00:47;;;;;;;;;;;;;;;11.99;51.92;95907.47;4184648;28;5951;-66
2024/01/05 02:02:54;;;;;;;;;;;;;;;11.95;51.84;95901.00;4184402;28;5801;-65
2024/01/05 02:04:58;;;;;;;;;;;;;;;11.94;52.14;95912.63;4184672;28;5895;-67
2024/01/05 02:07:02;;;;;;;;;;;;;;;11.94;51.95;95912.63;4184239;28;5730;-68
2024/01/05 02:09:05;;;;;;;;;;;;;;;11.95;52.05;95916.91;4184305;28;5866;-69
2024/01/05 02:11:08;;;;;;;;;;;;;;;11.97;51.72;95904.25;4176177;28;5842;-69
2024/01/05 02:13:11;;;;;;;;;;;;;;;11.97;51.88;95901.59;4184145;28;5711;-70
2024/01/05 02:15:14;;;;;;;;;;;;;;;11.97;51.60;95901.59;4184305;28;5710;-68
2024/01/05 02:17:31;;;;;;;;;;;;;;;11.97;51.43;95904.25;4184183;28;5715;-67
2024/01/05 02:19:35;;;;;;;;;;;;;;;11.99;51.63;95910.13;4184195;28;5835;-66
2024/01/05 02:21:43;;;;;;;;;;;;;;;11.98;51.77;95897.91;4184235;28;5811;-69
2024/01/05 02:23:46;;;;;;;;;;;;;;;12.01;51.43;95897.47;4184323;28;5773;-68
2024/01/05 02:25:49;;;;;;;;;;;;;;;12.03;51.31;95882.16;4184299;28;5752;-67
2024/01/05 02:27:52;;;;;;;;;;;;;;;12.04;51.64;95875.84;4184290;28;5751;-66
2024/01/05 02:29:54;;;;;;;;;;;;;;;12.08;51.31;95882.28;4183929;28;5768;-66
2024/01/05 02:31:57;;;;;;;;;;;;;;;12.08;51.27;95881.47;4183949;28;5858;-65
2024/01/05 02:34:00;;;;;;;;;;;;;;;12.07;51.15;95880.69;4184005;28;5759;-66
2024/01/05 02:36:04;;;;;;;;;;;;;;;12.06;51.51;95879.06;4183806;28;5752;-66
2024/01/05 02:38:07;;;;;;;;;;;;;;;12.08;51.15;95865.59;4183932;28;6403;-65
2024/01/05 02:40:13;;;;;;;;;;;;;;;12.09;51.11;95859.25;4183929;28;5741;-65
2024/01/05 02:42:15;;;;;;;;;;;;;;;12.09;50.97;95864.56;4183995;28;5780;-66
2024/01/05 02:44:18;;;;;;;;;;;;;;;12.10;51.03;95869.63;4184128;28;5909;-66
2024/01/05 02:46:20;;;;;;;;;;;;;;;12.09;50.92;95862.72;4183811;28;5855;-69
2024/01/05 02:48:23;;;;;;;;;;;;;;;12.08;50.78;95860.28;4183879;28;5780;-68
2024/01/05 02:50:26;;;;;;;;;;;;;;;12.08;50.54;95863.75;4183880;28;5718;-67
2024/01/05 02:52:28;;;;;;;;;;;;;;;12.09;50.60;95857.41;4184139;28;5823;-66
2024/01/05 02:54:31;;;;;;;;;;;;;;;12.09;50.88;95848.66;4187359;28;5748;-67
2024/01/05 02:56:36;;;;;;;;;;;;;;;12.10;50.86;95844.97;4187485;28;5751;-68
2024/01/05 02:58:38;;;;;;;;;;;;;;;12.12;50.84;95842.94;4187367;28;5702;-66
2024/01/05 03:00:41;;;;;;;;;;;;;;;12.12;50.71;95846.38;4187303;28;5694;-66
2024/01/05 03:02:44;;;;;;;;;;;;;;;12.14;50.68;95832.91;4187111;28;5813;-66
2024/01/05 03:04:47;;;;;;;;;;;;;;;12.15;50.51;95835.34;4187357;28;5789;-66
2024/01/05 03:06:49;;;;;;;;;;;;;;;12.16;50.66;95828.19;4186999;28;5748;-67
2024/01/05 03:08:53;;;;;;;;;;;;;;;12.15;50.67;95827.38;4186988;28;6464;-66
2024/01/05 03:10:56;;;;;;;;;;;;;;;12.16;50.64;95829.00;4187233;28;5730;-67
2024/01/05 03:13:00;;;;;;;;;;;;;;;12.15;50.36;95827.38;4186744;28;5718;-66
2024/01/05 03:15:03;;;;;;;;;;;;;;;12.15;50.20;95824.72;4186774;28;5710;-65
2024/01/05 03:17:06;;;;;;;;;;;;;;;12.16;50.58;95818.41;4186965;28;5761;-67
2024/01/05 03:19:10;;;;;;;;;;;;;;;12.16;50.19;95821.03;4186670;28;5756;-66
2024/01/05 03:21:13;;;;;;;;;;;;;;;12.16;50.23;95820.25;4186876;28;5748;-66
2024/01/05 03:23:16;;;;;;;;;;;;;;;12.17;50.41;95812.06;4186932;28;5756;-66
2024/01/05 03:25:19;;;;;;;;;;;;;;;12.17;50.36;95805.97;4186952;28;6585;-66
2024/01/05 03:27:21;;;;;;;;;;;;;;;12.18;50.15;95807.56;4186901;28;5767;-67
2024/01/05 03:29:25;;;;;;;;;;;;;;;12.17;50.18;95801.47;4186835;28;5771;-66
2024/01/05 03:31:28;;;;;;;;;;;;;;;12.19;50.10;95799.38;4170957;28;5740;-65
2024/01/05 03:33:31;;;;;;;;;;;;;;;12.20;50.05;95800.19;4186676;28;5790;-66
2024/01/05 03:35:34;;;;;;;;;;;;;;;12.19;50.21;95793.28;4186631;28;5892;-66
2024/01/05 03:37:37;;;;;;;;;;;;;;;12.18;50.30;95792.47;4186343;28;5810;-67
2024/01/05 03:39:40;;;;;;;;;;;;;;;12.18;49.92;95787.19;4186450;28;5668;-66
2024/01/05 03:41:43;;;;;;;;;;;;;;;12.19;49.95;95783.50;4186518;28;5860;-68
2024/01/05 03:43:46;;;;;;;;;;;;;;;12.20;49.79;95773.69;4186463;28;6376;-67
2024/01/05 03:45:49;;;;;;;;;;;;;;;12.19;50.21;95767.59;4186410;28;5771;-66
2024/01/05 03:47:52;;;;;;;;;;;;;;;12.19;49.82;95775.53;4186444;28;6436;-66
2024/01/05 03:49:55;;;;;;;;;;;;;;;12.18;49.77;95771.28;4186267;28;5844;-66
2024/01/05 03:51:58;;;;;;;;;;;;;;;12.20;49.76;95774.50;4186103;28;5730;-66
2024/01/05 03:54:01;;;;;;;;;;;;;;;12.20;49.50;95763.91;4186195;28;5726;-66
2024/01/05 03:56:04;;;;;;;;;;;;;;;12.20;49.74;95761.25;4186314;28;5740;-66
2024/01/05 03:58:07;;;;;;;;;;;;;;;12.21;49.55;95773.47;4186573;28;5792;-67
2024/01/05 04:00:12;;;;;;;;;;;;;;;12.19;49.29;95772.91;4186260;28;5866;-66
2024/01/05 04:02:16;;;;;;;;;;;;;;;12.18;49.29;95771.28;4186129;28;5752;-67
2024/01/05 04:04:19;;;;;;;;;;;;;;;12.17;49.52;95774.97;4185128;28;5763;-66
2024/01/05 04:06:22;;;;;;;;;;;;;;;12.17;49.52;95772.31;4186040;28;5831;-67
2024/01/05 04:08:25;;;;;;;;;;;;;;;12.14;49.10;95764.84;4185855;28;5570;-67
2024/01/05 04:10:28;;;;;;;;;;;;;;;12.15;49.28;95766.44;4186142;28;5821;-67
2024/01/05 04:12:52;;;;;;;;;;;;;;;12.15;49.24;95765.63;4185699;28;5779;-66
2024/01/05 04:15:15;;;;;;;;;;;;;;;12.14;49.01;95759.53;4184876;28;5804;-67
2024/01/05 04:17:19;;;;;;;;;;;;;;;12.13;49.13;95763.22;4186067;28;5764;-67
2024/01/05 04:19:22;;;;;;;;;;;;;;;12.15;49.33;95760.34;4185686;28;5767;-66
2024/01/05 04:21:25;;;;;;;;;;;;;;;12.15;49.20;95763.00;4185609;28;5723;-66
2024/01/05 04:23:29;;;;;;;;;;;;;;;12.16;48.87;95764.59;4185588;28;5702;-67
2024/01/05 04:25:32;;;;;;;;;;;;;;;12.13;49.19;95759.75;4186023;28;5710;-66
2024/01/05 04:27:34;;;;;;;;;;;;;;;12.15;49.24;95763.00;4185941;28;5778;-66
2024/01/05 04:29:38;;;;;;;;;;;;;;;12.17;48.90;95767.03;4185813;28;5118;-66
2024/01/05 04:31:41;;;;;;;;;;;;;;;12.17;49.23;95767.03;4185912;28;5554;-65
2024/01/05 04:33:46;;;;;;;;;;;;;;;12.18;49.23;95767.81;4185899;28;5538;-67
2024/01/05 04:35:48;;;;;;;;;;;;;;;12.18;49.22;95758.03;4185480;28;5764;-66
2024/01/05 04:37:51;;;;;;;;;;;;;;;12.19;48.96;95751.69;4185735;28;5123;-66
2024/01/05 04:39:54;;;;;;;;;;;;;;;12.19;48.97;95762.28;4185699;28;5633;-66
2024/01/05 04:41:57;;;;;;;;;;;;;;;12.19;49.05;95767.59;4185751;28;5812;-66
2024/01/05 04:44:00;;;;;;;;;;;;;;;12.19;48.83;95758.84;4185561;28;5836;-65
2024/01/05 04:46:04;;;;;;;;;;;;;;;12.16;48.89;95746.84;4185606;28;5726;-66
2024/01/05 04:48:08;;;;;;;;;;;;;;;12.15;48.89;95749.75;4185817;28;5840;-67
2024/01/05 04:50:12;;;;;;;;;;;;;;;12.14;49.31;95751.59;4177566;28;5774;-66
2024/01/05 04:52:15;;;;;;;;;;;;;;;12.12;49.01;95745.72;4185504;28;5827;-67
2024/01/05 04:54:18;;;;;;;;;;;;;;;12.14;49.26;95746.28;4185414;28;5564;-66
2024/01/05 04:56:21;;;;;;;;;;;;;;;12.14;48.91;95748.13;4185109;28;5811;-66
2024/01/05 04:58:25;;;;;;;;;;;;;;;12.14;49.12;95748.94;4185260;28;5905;-66
2024/01/05 05:00:27;;;;;;;;;;;;;;;12.14;49.06;95754.22;4185449;28;5998;-66
2024/01/05 05:02:30;;;;;;;;;;;;;;;12.12;49.31;95743.06;4185351;28;5866;-66
2024/01/05 05:04:33;;;;;;;;;;;;;;;12.12;49.39;95737.75;4185155;28;5768;-66
2024/01/05 05:06:38;;;;;;;;;;;;;;;12.11;49.43;95733.47;4185028;28;5760;-66
2024/01/05 05:08:41;;;;;;;;;;;;;;;12.11;49.25;95722.88;4184980;28;5706;-65
2024/01/05 05:10:44;;;;;;;;;;;;;;;12.10;49.21;95720.47;4185217;28;5767;-66
2024/01/05 05:12:47;;;;;;;;;;;;;;;12.08;49.26;95718.03;4184968;28;5758;-66
2024/01/05 05:14:50;;;;;;;;;;;;;;;12.10;49.28;95712.50;4184718;28;5759;-66
2024/01/05 05:16:53;;;;;;;;;;;;;;;12.09;49.20;95718.84;4185043;28;5897;-68
2024/01/05 05:18:56;;;;;;;;;;;;;;;12.08;49.41;95723.34;4184781;28;5824;-67
2024/01/05 05:20:59;;;;;;;;;;;;;;;12.09;49.38;95722.31;4175283;28;5665;-67
2024/01/05 05:23:04;;;;;;;;;;;;;;;12.10;49.39;95720.47;4184986;28;6246;-67
2024/01/05 05:25:07;;;;;;;;;;;;;;;12.11;49.61;95720.22;4184688;28;5657;-66
2024/01/05 05:27:10;;;;;;;;;;;;;;;12.12;49.31;95723.72;4176975;28;5744;-69
2024/01/05 05:29:13;;;;;;;;;;;;;;;12.13;49.62;95720.84;4184808;28;5833;-66
2024/01/05 05:31:16;;;;;;;;;;;;;;;12.14;49.52;95724.28;4176610;28;5724;-68
2024/01/05 05:33:19;;;;;;;;;;;;;;;12.14;49.45;95724.28;4185096;28;5711;-67
2024/01/05 05:35:23;;;;;;;;;;;;;;;12.16;49.65;95725.66;4184890;28;5858;-66
2024/01/05 05:37:26;;;;;;;;;;;;;;;12.19;49.68;95730.50;4184603;28;5755;-66
2024/01/05 05:39:29;;;;;;;;;;;;;;;12.19;49.53;95735.78;4184529;28;5893;-66
2024/01/05 05:41:33;;;;;;;;;;;;;;;12.19;49.40;95729.69;4184553;28;5707;-69
2024/01/05 05:43:35;;;;;;;;;;;;;;;12.20;49.55;95737.41;4184453;28;5558;-68
2024/01/05 05:45:38;;;;;;;;;;;;;;;12.18;49.33;95734.19;4184814;28;5752;-67
2024/01/05 05:47:41;;;;;;;;;;;;;;;12.17;49.38;95732.56;4184499;28;6523;-67
2024/01/05 05:49:44;;;;;;;;;;;;;;;12.14;49.47;95722.44;4184325;28;5843;-66
2024/01/05 05:51:48;;;;;;;;;;;;;;;12.11;49.43;95733.47;4184226;28;5558;-66
2024/01/05 05:53:50;;;;;;;;;;;;;;;12.10;49.84;95737.16;4184491;28;5775;-66
2024/01/05 05:55:55;;;;;;;;;;;;;;;12.08;49.69;95730.47;4183641;28;6451;-68
2024/01/05 05:57:58;;;;;;;;;;;;;;;12.07;49.68;95739.47;4184696;28;5707;-66
2024/01/05 06:00:05;;;;;;;;;;;;;;;12.07;49.88;95742.13;4184465;28;5777;-70
2024/01/05 06:02:07;;;;;;;;;;;;;;;12.07;50.18;95731.53;4184883;28;5735;-66
2024/01/05 06:04:11;;;;;;;;;;;;;;;12.08;49.92;95733.94;4177294;28;5748;-66
2024/01/05 06:06:18;;;;;;;;;;;;;;;12.09;50.20;95729.44;4179881;28;5764;-69
2024/01/05 06:08:22;;;;;;;;;;;;;;;12.06;49.96;95725.41;4184453;28;5710;-68
2024/01/05 06:10:24;;;;;;;;;;;;;;;12.05;50.42;95729.09;4184432;28;5726;-67
2024/01/05 06:12:28;;;;;;;;;;;;;;;12.04;50.19;95735.44;4183130;28;6093;-70
2024/01/05 06:14:31;;;;;;;;;;;;;;;12.05;50.21;95730.94;4183175;28;5763;-67
2024/01/05 06:16:34;;;;;;;;;;;;;;;12.04;50.56;95726.69;4172416;28;5099;-68
2024/01/05 06:18:37;;;;;;;;;;;;;;;12.04;50.43;95737.28;4179681;28;5646;-74
2024/01/05 06:20:41;;;;;;;;;;;;;;;12.03;50.35;95725.06;4171662;28;5820;-73
2024/01/05 06:22:43;;;;;;;;;;;;;;;12.03;50.57;95731.19;4176084;28;5840;-74
2024/01/05 06:24:46;;;;;;;;;;;;;;;12.05;50.24;95744.19;4176651;28;5672;-73
2024/01/05 06:26:48;;;;;;;;;;;;;;;12.05;50.54;95737.06;4180888;28;5776;-73
2024/01/05 06:28:52;;;;;;;;;;;;;;;12.08;50.62;95736.59;4175633;28;6411;-72
2024/01/05 06:30:55;;;;;;;;;;;;;;;12.09;50.52;95740.84;4175213;28;5634;-73
2024/01/05 06:32:59;;;;;;;;;;;;;;;12.08;50.70;95733.94;4177042;28;6337;-74
2024/01/05 06:35:03;;;;;;;;;;;;;;;12.08;50.39;95733.94;4179466;28;5679;-69
2024/01/05 06:37:06;;;;;;;;;;;;;;;12.09;50.52;95735.53;4174902;28;5774;-73
2024/01/05 06:39:09;;;;;;;;;;;;;;;12.10;50.47;95721.25;4182607;28;5840;-73
2024/01/05 06:41:12;;;;;;;;;;;;;;;12.09;50.78;95722.31;4183899;28;7242;-71
2024/01/05 06:43:15;;;;;;;;;;;;;;;12.09;50.54;95717.00;4183358;28;5816;-70
2024/01/05 06:45:19;;;;;;;;;;;;;;;12.09;50.94;95714.34;4176821;28;6326;-72
2024/01/05 06:47:22;;;;;;;;;;;;;;;12.10;50.87;95705.38;4176995;28;5706;-73
2024/01/05 06:49:25;;;;;;;;;;;;;;;12.10;50.60;95704.56;4177619;28;5796;-73
2024/01/05 06:51:29;;;;;;;;;;;;;;;12.10;51.02;95699.25;4182549;28;5637;-70
2024/01/05 06:53:33;;;;;;;;;;;;;;;12.09;50.93;95695.00;4174627;28;5801;-71
2024/01/05 06:55:36;;;;;;;;;;;;;;;12.05;50.64;95692.03;4179267;28;5768;-72
2024/01/05 06:57:38;;;;;;;;;;;;;;;12.03;50.86;95695.94;4183279;28;5698;-74
2024/01/05 06:59:41;;;;;;;;;;;;;;;11.99;51.00;95692.91;4176962;28;5733;-74
2024/01/05 07:01:45;;;;;;;;;;;;;;;12.00;51.14;95693.72;4179848;28;6413;-71
2024/01/05 07:03:48;;;;;;;;;;;;;;;12.00;51.05;95691.06;4182980;28;5812;-71
2024/01/05 07:05:51;;;;;;;;;;;;;;;12.01;51.37;95698.81;4181197;28;5089;-72
2024/01/05 07:07:54;;;;;;;;;;;;;;;12.03;51.23;95702.03;4181308;28;7707;-70
2024/01/05 07:09:57;;;;;;;;;;;;;;;12.03;51.19;95698.59;4182358;28;5761;-74
2024/01/05 07:12:00;;;;;;;;;;;;;;;11.99;51.59;95703.50;4194617;28;5845;-73
2024/01/05 07:14:03;;;;;;;;;;;;;;;12.00;51.52;95696.38;4182361;28;5755;-75
2024/01/05 07:16:15;;;;;;;;;;;;;;;11.97;51.52;95700.28;4182258;28;5750;-75
2024/01/05 07:18:20;;;;;;;;;;;;;;;11.91;51.44;95698.56;4158440;28;5463;-73
2024/01/05 07:20:23;;;;;;;;;;;;;;;11.90;51.69;95708.34;4181804;28;7732;-73
2024/01/05 07:22:26;;;;;;;;;;;;;;;11.89;51.91;95703.25;4175472;28;5753;-70
2024/01/05 07:24:29;;;;;;;;;;;;;;;11.89;51.62;95696.16;4180484;28;5641;-75
2024/01/05 07:26:32;;;;;;;;;;;;;;;11.92;51.97;95697.53;4181952;28;5767;-71
2024/01/05 07:28:35;;;;;;;;;;;;;;;11.92;51.83;95697.53;4182582;28;5707;-71
2024/01/05 07:30:38;;;;;;;;;;;;;;;11.91;51.97;95698.56;4163031;28;5854;-72
2024/01/05 07:32:41;;;;;;;;;;;;;;;11.90;51.96;95699.59;4181504;28;5655;-68
2024/01/05 07:34:46;;;;;;;;;;;;;;;11.86;52.20;95698.44;4183482;28;6538;-70
2024/01/05 07:36:50;;;;;;;;;;;;;;;11.85;52.05;95696.81;4187617;28;5650;-67
2024/01/05 07:38:53;;;;;;;;;;;;;;;11.84;52.27;95696.00;4186117;28;5719;-68
2024/01/05 07:40:57;;;;;;;;;;;;;;;11.83;52.37;95690.94;4186387;28;5258;-68
2024/01/05 07:42:59;;;;;;;;;;;;;;;11.85;52.31;95696.81;4186106;28;7746;-68
2024/01/05 07:45:04;;;;;;;;;;;;;;;11.89;51.96;95697.97;4186068;28;5826;-68
2024/01/05 07:47:09;;;;;;;;;;;;;;;11.90;52.23;95697.75;4184474;28;5736;-67
2024/01/05 07:49:12;;;;;;;;;;;;;;;11.94;52.13;95706.84;4182746;28;5220;-70
2024/01/05 07:51:20;;;;;;;;;;;;;;;11.96;52.08;95711.91;4185468;28;6598;-66
2024/01/05 07:53:23;;;;;;;;;;;;;;;11.97;52.44;95718.03;4180739;28;5638;-66
2024/01/05 07:55:25;;;;;;;;;;;;;;;11.97;52.12;95720.69;4184535;28;5834;-66
2024/01/05 07:57:28;;;;;;;;;;;;;;;11.94;52.52;95721.94;4184174;28;5566;-67
2024/01/05 07:59:32;;;;;;;;;;;;;;;11.94;52.66;95737.84;4184823;28;5919;-66
2024/01/05 08:01:34;;;;;;;;;;;;;;;11.96;52.56;95741.06;4185544;28;5883;-70
2024/01/05 08:03:38;;;;;;;;;;;;;;;11.97;52.38;95747.16;4185976;28;5748;-75
2024/01/05 08:05:41;;;;;;;;;;;;;;;11.96;52.30;95746.34;4185174;28;5554;-74
2024/01/05 08:07:50;;;;;;;;;;;;;;;11.96;52.76;95749.00;4186041;28;5855;-78
2024/01/05 08:09:53;;;;;;;;;;;;;;;11.97;52.73;95753.25;4186206;28;5963;-74
2024/01/05 08:11:56;;;;;;;;;;;;;;;11.98;52.68;95749.56;4186104;28;5562;-74
2024/01/05 08:13:59;;;;;;;;;;;;;;;11.96;52.49;95754.31;4186030;28;5558;-76
2024/01/05 08:16:01;;;;;;;;;;;;;;;11.94;52.92;95754.53;4185885;28;5117;-74
2024/01/05 08:18:05;;;;;;;;;;;;;;;11.95;52.60;95763.28;4185432;28;5843;-74
2024/01/05 08:20:10;;;;;;;;;;;;;;;11.98;52.91;95751.41;4185899;28;5794;-75
2024/01/05 08:22:13;;;;;;;;;;;;;;;11.99;52.93;95753.84;4185508;28;5683;-72
2024/01/05 08:24:17;;;;;;;;;;;;;;;12.01;52.81;95758.94;4186110;28;5766;-75
2024/01/05 08:26:20;;;;;;;;;;;;;;;12.00;52.94;95758.09;4185999;28;5779;-66
2024/01/05 08:28:23;;;;;;;;;;;;;;;12.00;53.13;95755.44;4185893;28;5744;-72
2024/01/05 08:30:26;;;;;;;;;;;;;;;11.99;53.20;95751.19;4185865;28;5735;-74
2024/01/05 08:32:28;;;;;;;;;;;;;;;12.00;52.86;95755.44;4183745;28;5927;-70
2024/01/05 08:34:31;;;;;;;;;;;;;;;12.00;52.93;95742.22;4181923;28;5942;-73
2024/01/05 08:36:35;;;;;;;;;;;;;;;11.96;53.08;95743.72;4185439;28;7351;-77
2024/01/05 08:38:38;;;;;;;;;;;;;;;11.98;52.89;95752.22;4186683;28;5710;-82
2024/01/05 08:40:42;;;;;;;;;;;;;;;11.96;53.30;95741.06;4186649;28;5722;-72
2024/01/05 08:42:45;;;;;;;;;;;;;;;11.95;53.01;95748.19;4186538;28;5712;-74
2024/01/05 08:44:50;;;;;;;;;;;;;;;11.94;53.02;95754.53;4186535;28;5681;-75
2024/01/05 08:46:53;;;;;;;;;;;;;;;11.94;53.40;95748.44;4186270;28;5767;-78
2024/01/05 08:48:56;;;;;;;;;;;;;;;11.94;53.10;95749.22;4185729;28;5716;-77
2024/01/05 08:50:59;;;;;;;;;;;;;;;11.92;53.06;95753.97;4185653;28;5706;-77
2024/01/05 08:53:02;;;;;;;;;;;;;;;11.94;53.29;95745.78;4184698;28;5831;-77
2024/01/05 08:55:06;;;;;;;;;;;;;;;11.96;53.13;95746.34;4184513;28;5630;-77
2024/01/05 08:57:11;;;;;;;;;;;;;;;11.98;53.19;95738.19;4175573;28;5685;-78
2024/01/05 08:59:14;;;;;;;;;;;;;;;12.00;53.05;95741.41;4178942;28;5693;-78
2024/01/05 09:01:17;;;;;;;;;;;;;;;12.01;53.11;95733.25;4185804;28;5850;-78
2024/01/05 09:03:19;;;;;;;;;;;;;;;12.02;52.85;95732.22;4186609;28;5726;-78
2024/01/05 09:05:22;;;;;;;;;;;;;;;12.05;52.91;95736.25;4186494;28;5759;-78
2024/01/05 09:07:24;;;;;;;;;;;;;;;12.06;53.21;95732.56;4185356;28;5579;-78
2024/01/05 09:09:27;;;;;;;;;;;;;;;12.06;53.01;95741.31;4186546;28;5760;-78
2024/01/05 09:11:30;;;;;;;;;;;;;;;12.08;53.21;95735.78;4181988;28;5670;-77
2024/01/05 09:13:35;;;;;;;;;;;;;;;12.06;53.00;95745.81;4186463;28;5657;-77
2024/01/05 09:15:41;;;;;;;;;;;;;;;12.07;53.12;95745.56;4188945;28;6051;-77
2024/01/05 09:17:44;;;;;;;;;;;;;;;12.07;53.10;95742.13;4185753;28;5732;-77
2024/01/05 09:19:47;;;;;;;;;;;;;;;12.06;53.17;95746.59;4185811;28;5102;-77
2024/01/05 09:21:50;;;;;;;;;;;;;;;12.08;53.27;95743.72;4180154;28;5660;-77
2024/01/05 09:23:53;;;;;;;;;;;;;;;12.09;53.05;95742.69;4184917;28;5652;-77
2024/01/05 09:25:57;;;;;;;;;;;;;;;12.09;52.98;95748.78;4175105;28;7327;-70
2024/01/05 09:28:00;;;;;;;;;;;;;;;12.09;53.44;95748.78;4180717;28;5752;-75
2024/01/05 09:30:06;;;;;;;;;;;;;;;12.09;52.99;95751.44;4184865;28;5822;-69
2024/01/05 09:32:09;;;;;;;;;;;;;;;12.08;53.27;95755.13;4184421;28;5634;-70
2024/01/05 09:34:13;;;;;;;;;;;;;;;12.11;53.36;95759.97;4177424;28;5713;-69
2024/01/05 09:36:16;;;;;;;;;;;;;;;12.12;53.14;95764.25;4182698;28;5794;-85
2024/01/05 09:38:19;;;;;;;;;;;;;;;12.12;53.39;95761.59;4181448;28;5755;-66
2024/01/05 09:40:23;;;;;;;;;;;;;;;12.14;53.41;95770.13;4178607;28;5714;-69
2024/01/05 09:42:27;;;;;;;;;;;;;;;12.14;53.13;95774.63;4183785;28;5865;-69
2024/01/05 09:44:31;;;;;;;;;;;;;;;12.11;53.29;95778.50;4174435;28;5786;-69
2024/01/05 09:46:39;;;;;;;;;;;;;;;12.10;53.05;95776.91;4183712;28;5710;-70
2024/01/05 09:48:41;;;;;;;;;;;;;;;12.08;53.42;95778.97;4183459;28;5851;-79
2024/01/05 09:50:55;;;;;;;;;;;;;;;12.08;53.57;95786.13;4183016;28;5665;-68
2024/01/05 09:52:58;;;;;;;;;;;;;;;12.05;53.44;95784.72;4182155;28;5800;-69
2024/01/05 09:55:01;;;;;;;;;;;;;;;12.04;53.68;95785.78;4184194;28;5758;-70
2024/01/05 09:57:06;;;;;;;;;;;;;;;12.03;53.53;95784.16;4184572;28;5634;-70
2024/01/05 09:59:09;;;;;;;;;;;;;;;12.02;53.68;95793.13;4178770;28;5756;-71
2024/01/05 10:01:22;;;;;;;;;;;;;;;12.01;53.82;95799.47;4182959;28;5828;-66
2024/01/05 10:03:26;;;;;;;;;;;;;;;12.01;54.16;95791.53;4181065;28;5851;-69
2024/01/05 10:05:30;;;;;;;;;;;;;;;12.01;54.24;95788.88;4182072;28;5688;-70
2024/01/05 10:07:41;;;;;;;;;;;;;;;11.99;54.07;95792.75;4181810;28;5562;-69
2024/01/05 10:09:50;;;;;;;;;;;;;;;11.99;54.26;95800.72;4181406;28;5812;-69
2024/01/05 10:11:54;;;;;;;;;;;;;;;11.97;54.08;95785.06;4184159;28;5650;-69
2024/01/05 10:14:00;;;;;;;;;;;;;;;11.97;54.42;95778.94;4184170;28;5846;-69
2024/01/05 10:16:04;;;;;;;;;;;;;;;11.96;54.43;95783.44;4176130;28;5630;-68
2024/01/05 10:18:16;;;;;;;;;;;;;;;11.94;54.79;95788.16;4179326;28;5630;-69
2024/01/05 10:20:28;;;;;;;;;;;;;;;11.91;54.57;95781.47;4182465;28;5855;-69
2024/01/05 10:22:33;;;;;;;;;;;;;;;11.93;54.64;95775.94;4182611;28;5079;-69
2024/01/05 10:24:36;;;;;;;;;;;;;;;11.94;54.72;95775.72;4182008;28;5809;-68
2024/01/05 10:26:39;;;;;;;;;;;;;;;11.96;54.84;95767.53;4179961;28;5718;-69
2024/01/05 10:28:41;;;;;;;;;;;;;;;11.98;54.84;95770.78;4182684;28;5878;-69
2024/01/05 10:30:44;;;;;;;;;;;;;;;11.98;55.24;95765.47;4182411;28;5694;-67
2024/01/05 10:32:46;;;;;;;;;;;;;;;11.98;55.36;95764.66;4181875;28;5854;-69
2024/01/05 10:34:51;;;;;;;;;;;;;;;11.97;55.36;95763.84;4182704;28;5876;-69
2024/01/05 10:37:03;;;;;;;;;;;;;;;11.99;55.32;95761.78;4182443;28;5798;-69
2024/01/05 10:39:08;;;;;;;;;;;;;;;12.04;55.45;95753.97;4182012;28;5657;-70
2024/01/05 10:41:12;;;;;;;;;;;;;;;12.04;55.62;95756.63;4182401;28;5554;-69
2024/01/05 10:43:18;;;;;;;;;;;;;;;12.05;55.64;95752.13;4182318;28;5883;-68
2024/01/05 10:45:20;;;;;;;;;;;;;;;12.06;55.44;95753.75;4182686;28;5903;-68
2024/01/05 10:47:25;;;;;;;;;;;;;;;12.07;55.78;95758.00;4182562;28;5554;-69
2024/01/05 10:49:30;;;;;;;;;;;;;;;12.06;55.76;95743.97;4182489;28;5083;-69
2024/01/05 10:51:34;;;;;;;;;;;;;;;12.08;55.64;95739.25;4182244;28;5888;-68
2024/01/05 10:53:39;;;;;;;;;;;;;;;12.07;55.83;95734.16;4182380;28;5843;-69